createdAt,value
2023-05-24T00:00:13.567Z,22.21
2023-05-24T00:01:17.273Z,22.17
2023-05-24T00:02:20.632Z,22.16
2023-05-24T00:03:23.512Z,22.12
2023-05-24T00:04:26.417Z,22.00
2023-05-24T00:05:31.645Z,21.99
2023-05-24T00:06:37.752Z,21.98
2023-05-24T00:07:40.468Z,21.98
2023-05-24T00:08:43.132Z,21.94
2023-05-24T00:09:45.819Z,21.91
2023-05-24T00:10:49.067Z,21.87
2023-05-24T00:11:51.686Z,21.84
2023-05-24T00:12:54.331Z,21.81
2023-05-24T00:13:57.106Z,21.76
2023-05-24T00:15:00.485Z,21.73
2023-05-24T00:16:03.173Z,21.68
2023-05-24T00:17:06.032Z,21.65
2023-05-24T00:18:08.753Z,21.62
2023-05-24T00:19:11.677Z,21.60
2023-05-24T00:20:14.846Z,21.56
2023-05-24T00:21:17.623Z,21.51
2023-05-24T00:22:21.621Z,21.47
2023-05-24T00:23:24.479Z,21.42
2023-05-24T00:24:27.153Z,21.40
2023-05-24T00:25:29.829Z,21.35
2023-05-24T00:26:32.492Z,21.30
2023-05-24T00:27:37.815Z,21.27
2023-05-24T00:28:40.543Z,21.23
2023-05-24T00:29:43.536Z,21.18
2023-05-24T00:30:46.275Z,21.14
2023-05-24T00:31:48.994Z,21.10
2023-05-24T00:32:51.698Z,21.08
2023-05-24T00:33:54.467Z,21.04
2023-05-24T00:34:57.193Z,20.99
2023-05-24T00:35:59.870Z,20.96
2023-05-24T00:37:02.602Z,20.92
2023-05-24T00:38:05.268Z,20.85
2023-05-24T00:39:07.904Z,20.82
2023-05-24T00:40:11.188Z,20.62
2023-05-24T00:41:13.892Z,20.52
2023-05-24T00:42:16.829Z,20.48
2023-05-24T00:43:19.926Z,20.42
2023-05-24T00:44:22.555Z,20.27
2023-05-24T00:45:25.235Z,20.21
2023-05-24T00:46:34.703Z,20.20
2023-05-24T00:47:37.832Z,20.12
2023-05-24T00:48:41.020Z,20.09
2023-05-24T00:49:43.788Z,20.10
2023-05-24T00:50:46.525Z,20.09
2023-05-24T00:51:50.133Z,20.07
2023-05-24T00:52:53.641Z,20.04
2023-05-24T00:53:56.610Z,19.98
2023-05-24T00:54:59.354Z,19.96
2023-05-24T00:56:03.444Z,19.85
2023-05-24T00:57:06.456Z,19.82
2023-05-24T00:58:09.117Z,19.78
2023-05-24T00:59:11.953Z,19.78
2023-05-24T01:00:14.876Z,19.75
2023-05-24T01:01:17.570Z,19.73
2023-05-24T01:02:21.320Z,19.66
2023-05-24T01:03:24.244Z,19.64
2023-05-24T01:04:28.565Z,19.60
2023-05-24T01:05:31.265Z,19.56
2023-05-24T01:06:45.559Z,19.53
2023-05-24T01:07:54.013Z,19.51
2023-05-24T01:09:20.703Z,19.47
2023-05-24T01:10:56.119Z,19.32
2023-05-24T01:12:16.548Z,19.33
2023-05-24T01:13:30.240Z,19.32
2023-05-24T01:14:53.907Z,19.28
2023-05-24T01:16:21.854Z,19.24
2023-05-24T01:17:30.400Z,19.19
2023-05-24T01:18:35.615Z,19.15
2023-05-24T01:20:02.666Z,19.11
2023-05-24T01:21:16.948Z,19.07
2023-05-24T01:22:37.928Z,19.02
2023-05-24T01:24:15.317Z,18.97
2023-05-24T01:25:36.285Z,18.95
2023-05-24T01:26:44.434Z,18.94
2023-05-24T01:27:48.754Z,18.90
2023-05-24T01:28:52.748Z,18.87
2023-05-24T01:29:57.049Z,18.84
2023-05-24T01:31:01.568Z,18.81
2023-05-24T01:32:04.632Z,18.79
2023-05-24T01:33:07.607Z,18.77
2023-05-24T01:34:10.318Z,18.73
2023-05-24T01:35:12.974Z,18.63
2023-05-24T01:36:15.617Z,18.59
2023-05-24T01:37:18.331Z,18.57
2023-05-24T01:38:21.266Z,18.53
2023-05-24T01:39:27.241Z,18.52
2023-05-24T01:40:30.107Z,18.50
2023-05-24T01:42:14.172Z,18.50
2023-05-24T01:43:27.624Z,18.50
2023-05-24T01:44:37.146Z,18.44
2023-05-24T01:45:46.167Z,18.40
2023-05-24T01:46:54.660Z,18.37
2023-05-24T01:48:20.108Z,18.33
2023-05-24T01:49:27.487Z,18.27
2023-05-24T01:50:36.648Z,18.17
2023-05-24T01:52:12.355Z,18.17
2023-05-24T01:53:19.258Z,18.17
2023-05-24T01:54:25.746Z,18.15
2023-05-24T01:55:29.890Z,18.14
2023-05-24T01:56:32.995Z,18.13
2023-05-24T01:57:36.853Z,18.10
2023-05-24T01:58:42.811Z,18.00
2023-05-24T01:59:46.393Z,18.00
2023-05-24T02:00:49.511Z,17.98
2023-05-24T02:01:52.464Z,17.95
2023-05-24T02:02:56.449Z,17.91
2023-05-24T02:04:00.256Z,17.91
2023-05-24T02:05:03.120Z,17.91
2023-05-24T02:06:06.423Z,17.89
2023-05-24T02:07:09.235Z,17.88
2023-05-24T02:08:12.098Z,17.85
2023-05-24T02:09:14.789Z,17.85
2023-05-24T02:10:17.663Z,17.83
2023-05-24T02:11:20.377Z,17.80
2023-05-24T02:12:23.040Z,17.79
2023-05-24T02:13:25.901Z,17.77
2023-05-24T02:14:28.655Z,17.74
2023-05-24T02:15:31.350Z,17.67
2023-05-24T02:16:34.055Z,17.65
2023-05-24T02:17:36.792Z,17.65
2023-05-24T02:18:39.485Z,17.60
2023-05-24T02:19:42.176Z,17.50
2023-05-24T02:20:45.102Z,17.51
2023-05-24T02:21:51.965Z,17.51
2023-05-24T02:22:54.588Z,17.51
2023-05-24T02:23:57.619Z,17.47
2023-05-24T02:25:00.262Z,17.45
2023-05-24T02:26:02.958Z,17.41
2023-05-24T02:27:05.807Z,17.40
2023-05-24T02:28:09.082Z,17.37
2023-05-24T02:29:11.809Z,17.30
2023-05-24T02:30:14.767Z,17.27
2023-05-24T02:31:17.570Z,17.24
2023-05-24T02:32:20.359Z,17.22
2023-05-24T02:33:26.059Z,17.23
2023-05-24T02:34:28.718Z,17.21
2023-05-24T02:35:33.643Z,17.20
2023-05-24T02:36:36.811Z,17.17
2023-05-24T02:37:39.543Z,17.14
2023-05-24T02:38:42.215Z,17.13
2023-05-24T02:39:44.916Z,17.07
2023-05-24T02:40:47.619Z,17.07
2023-05-24T02:41:50.274Z,17.06
2023-05-24T02:42:52.972Z,17.06
2023-05-24T02:43:55.608Z,17.05
2023-05-24T02:44:58.408Z,17.03
2023-05-24T02:46:01.067Z,16.90
2023-05-24T02:47:03.821Z,16.89
2023-05-24T02:48:06.794Z,16.92
2023-05-24T02:49:10.556Z,16.93
2023-05-24T02:50:13.249Z,16.90
2023-05-24T02:51:15.932Z,16.89
2023-05-24T02:52:22.152Z,16.87
2023-05-24T02:53:24.910Z,16.86
2023-05-24T02:54:27.873Z,16.85
2023-05-24T02:55:30.506Z,16.84
2023-05-24T02:56:33.550Z,16.83
2023-05-24T02:57:36.275Z,16.78
2023-05-24T02:58:41.087Z,16.76
2023-05-24T02:59:44.118Z,16.75
2023-05-24T03:00:47.498Z,16.74
2023-05-24T03:01:50.402Z,16.72
2023-05-24T03:02:53.180Z,16.70
2023-05-24T03:03:55.948Z,16.69
2023-05-24T03:04:58.600Z,16.66
2023-05-24T03:06:01.243Z,16.66
2023-05-24T03:07:03.922Z,16.61
2023-05-24T03:08:06.980Z,16.61
2023-05-24T03:09:09.787Z,16.58
2023-05-24T03:10:14.327Z,16.59
2023-05-24T03:11:22.528Z,16.57
2023-05-24T03:12:25.386Z,16.54
2023-05-24T03:13:28.025Z,16.51
2023-05-24T03:14:30.769Z,16.50
2023-05-24T03:15:33.387Z,16.47
2023-05-24T03:16:36.266Z,16.44
2023-05-24T03:17:38.993Z,16.41
2023-05-24T03:18:41.715Z,16.40
2023-05-24T03:21:04.265Z,16.38
2023-05-24T03:22:07.265Z,16.38
2023-05-24T03:23:13.069Z,16.35
2023-05-24T03:24:15.760Z,16.32
2023-05-24T03:25:19.294Z,16.31
2023-05-24T03:26:22.240Z,16.27
2023-05-24T03:27:24.953Z,16.26
2023-05-24T03:28:28.182Z,16.23
2023-05-24T03:29:31.149Z,16.22
2023-05-24T03:30:34.171Z,16.22
2023-05-24T03:31:36.953Z,16.22
2023-05-24T03:32:39.737Z,16.21
2023-05-24T03:33:42.532Z,16.19
2023-05-24T03:34:45.266Z,16.18
2023-05-24T03:35:47.980Z,16.15
2023-05-24T03:36:50.596Z,16.14
2023-05-24T03:37:53.859Z,16.13
2023-05-24T03:38:58.785Z,16.10
2023-05-24T03:40:01.524Z,16.08
2023-05-24T03:41:04.305Z,16.08
2023-05-24T03:42:07.215Z,16.07
2023-05-24T03:43:09.880Z,16.07
2023-05-24T03:44:12.555Z,16.07
2023-05-24T03:45:19.523Z,16.03
2023-05-24T03:46:27.038Z,16.03
2023-05-24T03:47:29.807Z,16.00
2023-05-24T03:48:32.472Z,15.99
2023-05-24T03:49:35.133Z,15.98
2023-05-24T03:50:37.801Z,15.96
2023-05-24T03:51:40.434Z,15.96
2023-05-24T03:52:43.701Z,15.95
2023-05-24T03:53:46.355Z,15.93
2023-05-24T03:54:49.860Z,15.92
2023-05-24T03:55:52.510Z,15.92
2023-05-24T03:56:55.194Z,15.90
2023-05-24T03:57:57.854Z,15.88
2023-05-24T03:59:06.767Z,15.87
2023-05-24T04:00:11.104Z,15.86
2023-05-24T04:01:25.469Z,15.83
2023-05-24T04:02:32.246Z,15.82
2023-05-24T04:03:34.964Z,15.81
2023-05-24T04:04:40.315Z,15.78
2023-05-24T04:05:42.970Z,15.78
2023-05-24T04:06:45.620Z,15.78
2023-05-24T04:07:48.390Z,15.76
2023-05-24T04:08:53.259Z,15.75
2023-05-24T04:09:56.067Z,15.74
2023-05-24T04:10:58.788Z,15.73
2023-05-24T04:12:01.705Z,15.72
2023-05-24T04:13:04.577Z,15.70
2023-05-24T04:14:07.313Z,15.70
2023-05-24T04:15:10.538Z,15.68
2023-05-24T04:16:14.621Z,15.68
2023-05-24T04:17:17.575Z,15.66
2023-05-24T04:18:20.439Z,15.65
2023-05-24T04:19:23.178Z,15.65
2023-05-24T04:20:26.098Z,15.64
2023-05-24T04:21:29.089Z,15.61
2023-05-24T04:22:31.776Z,15.61
2023-05-24T04:23:34.424Z,15.59
2023-05-24T04:24:37.085Z,15.57
2023-05-24T04:25:39.897Z,15.53
2023-05-24T04:26:42.610Z,15.52
2023-05-24T04:27:48.749Z,15.50
2023-05-24T04:28:51.489Z,15.50
2023-05-24T04:29:54.935Z,15.48
2023-05-24T04:30:58.256Z,15.49
2023-05-24T04:32:01.398Z,15.50
2023-05-24T04:33:04.364Z,15.49
2023-05-24T04:34:08.258Z,15.49
2023-05-24T04:35:11.713Z,15.49
2023-05-24T04:36:14.783Z,15.47
2023-05-24T04:37:17.880Z,15.46
2023-05-24T04:38:21.986Z,15.45
2023-05-24T04:39:24.744Z,15.43
2023-05-24T04:40:27.465Z,15.44
2023-05-24T04:41:33.000Z,15.43
2023-05-24T04:42:36.577Z,15.40
2023-05-24T04:43:39.198Z,15.36
2023-05-24T04:44:43.152Z,15.36
2023-05-24T04:45:45.828Z,15.34
2023-05-24T04:46:48.562Z,15.32
2023-05-24T04:47:51.705Z,15.32
2023-05-24T04:48:54.950Z,15.32
2023-05-24T04:49:57.613Z,15.32
2023-05-24T04:51:01.045Z,15.29
2023-05-24T04:52:03.746Z,15.31
2023-05-24T04:53:06.687Z,15.23
2023-05-24T04:54:09.565Z,15.27
2023-05-24T04:55:12.271Z,15.21
2023-05-24T04:56:15.624Z,15.22
2023-05-24T04:57:18.422Z,15.19
2023-05-24T04:58:21.107Z,15.15
2023-05-24T04:59:23.841Z,15.15
2023-05-24T05:00:26.515Z,15.14
2023-05-24T05:01:29.354Z,15.14
2023-05-24T05:02:32.119Z,15.15
2023-05-24T05:03:35.070Z,15.17
2023-05-24T05:04:37.842Z,15.19
2023-05-24T05:05:40.599Z,15.16
2023-05-24T05:06:45.253Z,15.19
2023-05-24T05:07:47.915Z,15.16
2023-05-24T05:08:50.574Z,15.19
2023-05-24T05:09:53.408Z,15.17
2023-05-24T05:10:57.164Z,15.14
2023-05-24T05:12:00.371Z,15.15
2023-05-24T05:13:03.015Z,15.12
2023-05-24T05:14:06.958Z,15.12
2023-05-24T05:15:10.139Z,15.13
2023-05-24T05:16:13.678Z,15.11
2023-05-24T05:17:16.013Z,15.12
2023-05-24T05:18:18.676Z,15.13
2023-05-24T05:19:21.533Z,15.15
2023-05-24T05:20:24.899Z,15.16
2023-05-24T05:21:27.518Z,15.16
2023-05-24T05:22:31.318Z,15.18
2023-05-24T05:23:34.060Z,15.19
2023-05-24T05:24:36.752Z,15.19
2023-05-24T05:25:39.385Z,15.17
2023-05-24T05:26:42.426Z,15.17
2023-05-24T05:27:45.274Z,15.17
2023-05-24T05:28:47.920Z,15.15
2023-05-24T05:29:50.619Z,15.12
2023-05-24T05:30:53.544Z,15.13
2023-05-24T05:31:56.460Z,15.14
2023-05-24T05:32:59.450Z,15.16
2023-05-24T05:34:02.285Z,15.16
2023-05-24T05:35:05.691Z,15.16
2023-05-24T05:36:08.408Z,15.16
2023-05-24T05:37:11.478Z,15.14
2023-05-24T05:38:14.270Z,15.12
2023-05-24T05:39:16.957Z,15.12
2023-05-24T05:40:19.713Z,15.11
2023-05-24T05:41:22.730Z,15.11
2023-05-24T05:42:25.419Z,15.10
2023-05-24T05:43:29.584Z,15.10
2023-05-24T05:44:32.352Z,15.11
2023-05-24T05:45:34.985Z,15.13
2023-05-24T05:46:37.710Z,15.14
2023-05-24T05:47:41.155Z,15.15
2023-05-24T05:48:46.178Z,15.16
2023-05-24T05:49:49.102Z,15.17
2023-05-24T05:50:51.711Z,15.17
2023-05-24T05:51:55.223Z,15.18
2023-05-24T05:52:58.508Z,15.19
2023-05-24T05:54:01.290Z,15.20
2023-05-24T05:55:04.089Z,15.19
2023-05-24T05:56:06.868Z,15.19
2023-05-24T05:57:11.931Z,15.19
2023-05-24T05:58:14.623Z,15.19
2023-05-24T05:59:17.593Z,15.20
2023-05-24T06:00:21.181Z,15.19
2023-05-24T06:01:24.028Z,15.19
2023-05-24T06:02:26.758Z,15.19
2023-05-24T06:03:29.668Z,15.19
2023-05-24T06:04:32.703Z,15.20
2023-05-24T06:05:35.429Z,15.19
2023-05-24T06:06:38.068Z,15.18
2023-05-24T06:07:40.710Z,15.17
2023-05-24T06:08:43.359Z,15.19
2023-05-24T06:09:46.057Z,15.18
2023-05-24T06:10:50.545Z,15.18
2023-05-24T06:11:54.946Z,15.17
2023-05-24T06:12:57.609Z,15.18
2023-05-24T06:14:00.264Z,15.18
2023-05-24T06:15:02.949Z,15.18
2023-05-24T06:16:05.763Z,15.17
2023-05-24T06:17:08.510Z,15.17
2023-05-24T06:18:11.144Z,15.16
2023-05-24T06:19:14.490Z,15.16
2023-05-24T06:20:17.593Z,15.17
2023-05-24T06:21:20.318Z,15.18
2023-05-24T06:22:23.468Z,15.16
2023-05-24T06:23:26.132Z,15.16
2023-05-24T06:24:29.184Z,15.18
2023-05-24T06:25:33.474Z,15.18
2023-05-24T06:26:37.924Z,15.15
2023-05-24T06:27:41.353Z,15.17
2023-05-24T06:28:44.274Z,15.15
2023-05-24T06:29:46.961Z,15.16
2023-05-24T06:30:50.052Z,15.15
2023-05-24T06:31:52.938Z,15.15
2023-05-24T06:32:57.108Z,15.13
2023-05-24T06:34:03.959Z,15.12
2023-05-24T06:35:08.434Z,15.11
2023-05-24T06:36:11.298Z,15.10
2023-05-24T06:37:15.710Z,15.11
2023-05-24T06:38:18.414Z,15.09
2023-05-24T06:39:21.448Z,15.10
2023-05-24T06:40:24.079Z,15.09
2023-05-24T06:41:27.559Z,15.07
2023-05-24T06:42:30.197Z,15.07
2023-05-24T06:43:33.926Z,15.06
2023-05-24T06:44:36.804Z,15.07
2023-05-24T06:45:39.434Z,15.08
2023-05-24T06:46:42.354Z,15.07
2023-05-24T06:47:45.117Z,15.08
2023-05-24T06:48:48.050Z,15.05
2023-05-24T06:49:51.888Z,15.05
2023-05-24T06:50:54.542Z,15.03
2023-05-24T06:51:57.845Z,15.03
2023-05-24T06:53:00.489Z,15.03
2023-05-24T06:54:04.015Z,15.03
2023-05-24T06:55:06.559Z,15.02
2023-05-24T06:56:09.998Z,15.01
2023-05-24T06:57:12.685Z,15.00
2023-05-24T06:58:15.392Z,15.01
2023-05-24T06:59:18.052Z,14.99
2023-05-24T07:00:21.079Z,14.98
2023-05-24T07:01:23.914Z,14.97
2023-05-24T07:02:29.111Z,15.02
2023-05-24T07:03:35.341Z,15.07
2023-05-24T07:04:38.168Z,15.07
2023-05-24T07:05:40.885Z,15.09
2023-05-24T07:06:43.514Z,15.06
2023-05-24T07:07:46.229Z,15.02
2023-05-24T07:08:48.868Z,15.01
2023-05-24T07:09:51.660Z,15.06
2023-05-24T07:10:55.196Z,15.12
2023-05-24T07:11:57.603Z,15.05
2023-05-24T07:13:00.341Z,15.02
2023-05-24T07:14:02.989Z,14.98
2023-05-24T07:15:07.696Z,15.00
2023-05-24T07:16:10.457Z,14.98
2023-05-24T07:17:13.193Z,14.99
2023-05-24T07:18:16.043Z,14.97
2023-05-24T07:19:18.675Z,14.94
2023-05-24T07:20:21.393Z,14.99
2023-05-24T07:21:24.039Z,15.00
2023-05-24T07:22:29.184Z,14.99
2023-05-24T07:23:31.988Z,15.02
2023-05-24T07:24:34.726Z,15.01
2023-05-24T07:25:37.438Z,14.99
2023-05-24T07:26:40.164Z,14.98
2023-05-24T07:27:42.984Z,14.96
2023-05-24T07:28:45.627Z,14.96
2023-05-24T07:29:48.612Z,14.97
2023-05-24T07:30:52.422Z,14.96
2023-05-24T07:31:57.027Z,14.95
2023-05-24T07:32:59.835Z,14.94
2023-05-24T07:34:02.569Z,14.92
2023-05-24T07:35:06.209Z,14.98
2023-05-24T07:36:09.313Z,14.99
2023-05-24T07:37:12.480Z,14.98
2023-05-24T07:38:15.229Z,14.99
2023-05-24T07:39:17.917Z,14.98
2023-05-24T07:40:20.982Z,14.97
2023-05-24T07:41:27.977Z,14.93
2023-05-24T07:42:30.598Z,14.89
2023-05-24T07:43:33.432Z,14.86
2023-05-24T07:44:36.623Z,14.83
2023-05-24T07:45:39.303Z,14.81
2023-05-24T07:46:42.249Z,14.78
2023-05-24T07:47:45.068Z,14.77
2023-05-24T07:48:47.873Z,14.73
2023-05-24T07:49:50.493Z,14.72
2023-05-24T07:50:53.243Z,14.73
2023-05-24T07:51:58.853Z,14.73
2023-05-24T07:53:01.494Z,14.75
2023-05-24T07:54:04.353Z,14.73
2023-05-24T07:55:07.460Z,14.73
2023-05-24T07:56:10.522Z,14.69
2023-05-24T07:57:13.580Z,14.66
2023-05-24T07:58:16.383Z,14.66
2023-05-24T07:59:19.674Z,14.64
2023-05-24T08:00:23.568Z,14.64
2023-05-24T08:01:26.246Z,14.62
2023-05-24T08:02:29.454Z,14.60
2023-05-24T08:03:32.921Z,14.56
2023-05-24T08:04:35.990Z,14.55
2023-05-24T08:05:38.848Z,14.53
2023-05-24T08:06:42.224Z,14.50
2023-05-24T08:07:44.919Z,14.49
2023-05-24T08:08:48.247Z,14.50
2023-05-24T08:09:50.917Z,14.51
2023-05-24T08:10:53.559Z,14.49
2023-05-24T08:11:57.601Z,14.44
2023-05-24T08:13:00.245Z,14.40
2023-05-24T08:14:02.920Z,14.41
2023-05-24T08:15:07.141Z,14.41
2023-05-24T08:16:09.803Z,14.39
2023-05-24T08:17:12.441Z,14.39
2023-05-24T08:18:15.359Z,14.33
2023-05-24T08:19:18.150Z,14.28
2023-05-24T08:20:21.554Z,14.23
2023-05-24T08:21:24.274Z,14.23
2023-05-24T08:22:26.939Z,14.21
2023-05-24T08:23:32.252Z,14.20
2023-05-24T08:24:34.902Z,14.19
2023-05-24T08:25:37.596Z,14.19
2023-05-24T08:26:40.532Z,14.17
2023-05-24T08:27:43.684Z,14.14
2023-05-24T08:28:46.442Z,14.11
2023-05-24T08:29:49.136Z,14.09
2023-05-24T08:30:51.796Z,14.07
2023-05-24T08:31:54.602Z,14.07
2023-05-24T08:32:58.740Z,14.07
2023-05-24T08:34:02.343Z,14.05
2023-05-24T08:35:19.404Z,14.06
2023-05-24T08:36:23.360Z,14.07
2023-05-24T08:37:26.274Z,14.07
2023-05-24T08:38:30.004Z,14.08
2023-05-24T08:39:32.693Z,14.07
2023-05-24T08:40:35.542Z,14.05
2023-05-24T08:41:39.371Z,14.07
2023-05-24T08:42:42.562Z,14.05
2023-05-24T08:43:47.576Z,14.05
2023-05-24T08:44:59.128Z,14.03
2023-05-24T08:46:04.270Z,14.04
2023-05-24T08:47:08.227Z,14.04
2023-05-24T08:48:11.161Z,14.02
2023-05-24T08:49:15.258Z,14.02
2023-05-24T08:50:18.862Z,14.01
2023-05-24T08:51:21.222Z,14.01
2023-05-24T08:52:24.686Z,14.01
2023-05-24T08:53:28.147Z,14.00
2023-05-24T08:54:31.854Z,14.01
2023-05-24T08:55:35.833Z,13.98
2023-05-24T08:56:40.488Z,13.98
2023-05-24T08:57:44.660Z,13.97
2023-05-24T08:58:47.804Z,13.98
2023-05-24T08:59:50.624Z,13.98
2023-05-24T09:00:53.269Z,13.99
2023-05-24T09:01:58.200Z,13.98
2023-05-24T09:03:02.591Z,13.99
2023-05-24T09:04:07.033Z,13.98
2023-05-24T09:05:12.009Z,13.98
2023-05-24T09:06:18.047Z,13.98
2023-05-24T09:07:25.680Z,13.95
2023-05-24T09:08:29.675Z,13.97
2023-05-24T09:09:35.410Z,13.96
2023-05-24T09:10:53.289Z,13.95
2023-05-24T09:12:00.994Z,13.95
2023-05-24T09:13:06.314Z,13.95
2023-05-24T09:14:09.132Z,13.94
2023-05-24T09:15:12.065Z,13.95
2023-05-24T09:16:16.287Z,13.95
2023-05-24T09:17:20.657Z,13.95
2023-05-24T09:18:23.363Z,13.93
2023-05-24T09:19:28.409Z,13.91
2023-05-24T09:20:31.645Z,13.89
2023-05-24T09:21:34.633Z,13.88
2023-05-24T09:22:41.168Z,13.86
2023-05-24T09:23:45.490Z,13.86
2023-05-24T09:24:48.311Z,13.87
2023-05-24T09:25:50.999Z,13.90
2023-05-24T09:26:54.528Z,13.89
2023-05-24T09:27:57.300Z,13.91
2023-05-24T09:28:59.957Z,13.88
2023-05-24T09:30:05.876Z,13.86
2023-05-24T09:31:08.801Z,13.84
2023-05-24T09:32:11.503Z,13.83
2023-05-24T09:33:14.253Z,13.82
2023-05-24T09:34:17.356Z,13.80
2023-05-24T09:35:19.969Z,13.83
2023-05-24T09:36:22.701Z,13.83
2023-05-24T09:37:32.867Z,13.84
2023-05-24T09:38:36.929Z,13.81
2023-05-24T09:39:43.676Z,13.79
2023-05-24T09:40:47.289Z,13.79
2023-05-24T09:41:59.349Z,13.80
2023-05-24T09:43:10.358Z,13.81
2023-05-24T09:44:15.865Z,13.82
2023-05-24T09:45:18.578Z,13.80
2023-05-24T09:46:22.265Z,13.80
2023-05-24T09:47:30.178Z,13.80
2023-05-24T09:48:32.993Z,13.79
2023-05-24T09:49:38.253Z,13.77
2023-05-24T09:50:41.434Z,13.77
2023-05-24T09:51:44.332Z,13.77
2023-05-24T09:52:47.062Z,13.77
2023-05-24T09:53:52.802Z,13.77
2023-05-24T09:54:56.137Z,13.74
2023-05-24T09:55:58.827Z,13.71
2023-05-24T09:57:04.186Z,13.70
2023-05-24T09:58:09.699Z,13.71
2023-05-24T09:59:12.490Z,13.69
2023-05-24T10:00:22.238Z,13.71
2023-05-24T10:01:27.282Z,13.69
2023-05-24T10:02:38.228Z,13.69
2023-05-24T10:03:54.967Z,13.68
2023-05-24T10:05:03.334Z,13.66
2023-05-24T10:06:08.976Z,13.67
2023-05-24T10:07:12.838Z,13.64
2023-05-24T10:08:16.918Z,13.63
2023-05-24T10:09:19.624Z,13.65
2023-05-24T10:10:23.336Z,13.64
2023-05-24T10:11:26.792Z,13.64
2023-05-24T10:12:31.662Z,13.62
2023-05-24T10:13:36.230Z,13.59
2023-05-24T10:14:39.730Z,13.60
2023-05-24T10:15:43.294Z,13.57
2023-05-24T10:16:46.158Z,13.57
2023-05-24T10:17:48.985Z,13.55
2023-05-24T10:18:51.839Z,13.53
2023-05-24T10:19:54.553Z,13.52
2023-05-24T10:20:58.808Z,13.53
2023-05-24T10:22:03.951Z,13.50
2023-05-24T10:23:10.477Z,13.49
2023-05-24T10:24:18.086Z,13.51
2023-05-24T10:25:28.060Z,13.54
2023-05-24T10:26:34.237Z,13.54
2023-05-24T10:27:38.822Z,13.55
2023-05-24T10:28:46.605Z,13.56
2023-05-24T10:30:13.679Z,13.53
2023-05-24T10:31:22.587Z,13.55
2023-05-24T10:32:27.579Z,13.52
2023-05-24T10:33:33.336Z,13.52
2023-05-24T10:34:37.067Z,13.51
2023-05-24T10:35:41.277Z,13.53
2023-05-24T10:36:45.544Z,13.54
2023-05-24T10:37:48.488Z,13.55
2023-05-24T10:38:51.665Z,13.58
2023-05-24T10:39:54.730Z,13.57
2023-05-24T10:40:57.359Z,13.57
2023-05-24T10:42:09.604Z,13.53
2023-05-24T10:43:12.733Z,13.54
2023-05-24T10:44:20.156Z,13.55
2023-05-24T10:45:28.557Z,13.57
2023-05-24T10:46:33.473Z,13.55
2023-05-24T10:47:39.306Z,13.55
2023-05-24T10:48:42.553Z,13.54
2023-05-24T10:50:05.607Z,13.54
2023-05-24T10:51:39.943Z,13.47
2023-05-24T10:52:42.692Z,13.48
2023-05-24T10:53:45.371Z,13.50
2023-05-24T10:55:08.311Z,13.51
2023-05-24T10:56:14.184Z,13.50
2023-05-24T10:57:25.018Z,13.48
2023-05-24T10:59:00.136Z,13.48
2023-05-24T11:01:34.498Z,13.45
2023-05-24T11:02:37.388Z,13.45
2023-05-24T11:03:42.228Z,13.45
2023-05-24T11:04:47.561Z,13.46
2023-05-24T11:05:53.642Z,13.45
2023-05-24T11:07:02.118Z,13.44
2023-05-24T11:08:07.954Z,13.43
2023-05-24T11:09:11.273Z,13.44
2023-05-24T11:10:31.474Z,13.43
2023-05-24T11:11:34.546Z,13.42
2023-05-24T11:12:39.760Z,13.42
2023-05-24T11:13:43.770Z,13.42
2023-05-24T11:14:53.640Z,13.38
2023-05-24T11:15:57.061Z,13.36
2023-05-24T11:17:02.772Z,13.36
2023-05-24T11:18:14.153Z,13.42
2023-05-24T11:19:22.875Z,13.45
2023-05-24T11:20:25.656Z,13.44
2023-05-24T11:21:29.954Z,13.44
2023-05-24T11:22:32.967Z,13.47
2023-05-24T11:23:38.448Z,13.47
2023-05-24T11:24:42.331Z,13.48
2023-05-24T11:25:47.693Z,13.47
2023-05-24T11:26:51.829Z,13.50
2023-05-24T11:27:54.977Z,13.51
2023-05-24T11:28:58.539Z,13.57
2023-05-24T11:30:01.614Z,13.57
2023-05-24T11:31:10.019Z,13.57
2023-05-24T11:32:24.187Z,13.51
2023-05-24T11:33:27.747Z,13.49
2023-05-24T11:34:32.509Z,13.46
2023-05-24T11:35:35.168Z,13.43
2023-05-24T11:36:38.002Z,13.42
2023-05-24T11:38:49.572Z,13.36
2023-05-24T11:39:53.456Z,13.37
2023-05-24T11:40:59.269Z,13.33
2023-05-24T11:42:05.326Z,13.31
2023-05-24T11:43:08.061Z,13.28
2023-05-24T11:44:12.439Z,13.24
2023-05-24T11:45:16.177Z,13.21
2023-05-24T11:46:20.893Z,13.18
2023-05-24T11:47:24.343Z,13.16
2023-05-24T11:48:28.172Z,13.09
2023-05-24T11:49:31.265Z,13.09
2023-05-24T11:50:48.835Z,13.08
2023-05-24T11:51:57.668Z,13.04
2023-05-24T11:53:04.477Z,13.08
2023-05-24T11:54:07.181Z,13.03
2023-05-24T11:55:16.543Z,13.02
2023-05-24T11:56:19.940Z,12.99
2023-05-24T11:57:33.727Z,12.95
2023-05-24T11:58:53.773Z,12.91
2023-05-24T11:59:57.182Z,12.90
2023-05-24T12:00:59.942Z,12.90
2023-05-24T12:02:06.090Z,12.95
2023-05-24T12:03:10.417Z,12.97
2023-05-24T12:04:13.564Z,12.98
2023-05-24T12:05:20.091Z,12.92
2023-05-24T12:06:23.439Z,12.92
2023-05-24T12:07:26.078Z,12.91
2023-05-24T12:08:28.781Z,12.92
2023-05-24T12:09:31.583Z,12.92
2023-05-24T12:10:35.996Z,12.93
2023-05-24T12:11:44.029Z,12.90
2023-05-24T12:12:48.115Z,12.88
2023-05-24T12:13:51.058Z,12.86
2023-05-24T12:14:56.799Z,12.91
2023-05-24T12:15:59.570Z,12.93
2023-05-24T12:17:02.795Z,12.90
2023-05-24T12:18:05.511Z,12.89
2023-05-24T12:19:14.174Z,12.87
2023-05-24T12:20:30.752Z,12.83
2023-05-24T12:21:33.966Z,12.80
2023-05-24T12:22:36.771Z,12.76
2023-05-24T12:23:40.326Z,12.75
2023-05-24T12:24:43.173Z,12.71
2023-05-24T12:25:45.987Z,12.67
2023-05-24T12:26:49.710Z,12.70
2023-05-24T12:27:57.042Z,12.70
2023-05-24T12:29:01.903Z,12.70
2023-05-24T12:30:10.502Z,12.73
2023-05-24T12:31:13.179Z,12.69
2023-05-24T12:32:16.002Z,12.63
2023-05-24T12:33:24.448Z,12.60
2023-05-24T12:34:28.181Z,12.61
2023-05-24T12:35:30.860Z,12.58
2023-05-24T12:36:35.015Z,12.59
2023-05-24T12:37:37.664Z,12.57
2023-05-24T12:38:40.349Z,12.52
2023-05-24T12:39:44.816Z,12.57
2023-05-24T12:40:57.069Z,12.59
2023-05-24T12:42:12.609Z,12.61
2023-05-24T12:43:16.633Z,12.62
2023-05-24T12:44:26.304Z,12.59
2023-05-24T12:45:29.053Z,12.67
2023-05-24T12:46:31.770Z,12.67
2023-05-24T12:47:34.476Z,12.65
2023-05-24T12:48:37.501Z,12.65
2023-05-24T12:49:40.369Z,12.61
2023-05-24T12:50:43.293Z,12.65
2023-05-24T12:51:47.829Z,12.63
2023-05-24T12:52:55.209Z,12.58
2023-05-24T12:53:58.240Z,12.54
2023-05-24T12:55:00.966Z,12.51
2023-05-24T12:56:03.686Z,12.54
2023-05-24T12:57:06.772Z,12.60
2023-05-24T12:58:10.203Z,12.60
2023-05-24T12:59:13.409Z,12.62
2023-05-24T13:00:16.557Z,12.66
2023-05-24T13:01:19.616Z,12.72
2023-05-24T13:02:22.285Z,12.75
2023-05-24T13:03:24.966Z,12.73
2023-05-24T13:04:27.908Z,12.65
2023-05-24T13:05:30.737Z,12.59
2023-05-24T13:06:33.795Z,12.56
2023-05-24T13:07:36.903Z,12.53
2023-05-24T13:08:40.968Z,12.52
2023-05-24T13:09:43.780Z,12.51
2023-05-24T13:10:46.468Z,12.53
2023-05-24T13:11:49.221Z,12.53
2023-05-24T13:12:52.332Z,12.51
2023-05-24T13:13:55.065Z,12.58
2023-05-24T13:14:57.702Z,12.69
2023-05-24T13:16:00.606Z,12.76
2023-05-24T13:17:03.526Z,12.78
2023-05-24T13:18:06.648Z,12.76
2023-05-24T13:19:09.359Z,12.77
2023-05-24T13:20:12.439Z,12.77
2023-05-24T13:21:15.342Z,12.81
2023-05-24T13:22:18.143Z,12.81
2023-05-24T13:23:20.793Z,12.79
2023-05-24T13:24:23.834Z,12.79
2023-05-24T13:25:27.247Z,12.70
2023-05-24T13:26:31.199Z,12.69
2023-05-24T13:27:34.444Z,12.72
2023-05-24T13:28:39.104Z,12.61
2023-05-24T13:29:59.138Z,12.51
2023-05-24T13:31:02.880Z,12.39
2023-05-24T13:32:05.807Z,12.36
2023-05-24T13:33:08.485Z,12.36
2023-05-24T13:34:13.960Z,12.36
2023-05-24T13:35:17.184Z,12.35
2023-05-24T13:36:20.350Z,12.35
2023-05-24T13:37:23.481Z,12.33
2023-05-24T13:38:26.229Z,12.33
2023-05-24T13:39:28.953Z,12.29
2023-05-24T13:40:32.231Z,12.28
2023-05-24T13:41:36.054Z,12.24
2023-05-24T13:42:38.909Z,12.28
2023-05-24T13:43:41.721Z,12.31
2023-05-24T13:44:44.380Z,12.35
2023-05-24T13:45:47.236Z,12.36
2023-05-24T13:46:50.011Z,12.34
2023-05-24T13:47:54.185Z,12.24
2023-05-24T13:48:57.801Z,12.21
2023-05-24T13:50:00.148Z,12.19
2023-05-24T13:51:02.516Z,12.17
2023-05-24T13:52:05.455Z,12.18
2023-05-24T13:53:08.454Z,12.12
2023-05-24T13:54:12.138Z,12.07